createdAt,value
2018-04-14T00:01:53.838Z,99.90
2018-04-14T00:04:20.256Z,99.90
2018-04-14T00:06:47.494Z,99.90
2018-04-14T00:09:13.888Z,99.90
2018-04-14T00:11:40.359Z,99.90
2018-04-14T00:14:06.793Z,99.90
2018-04-14T00:16:33.183Z,99.90
2018-04-14T00:18:59.597Z,99.90
2018-04-14T00:21:25.990Z,99.90
2018-04-14T00:23:52.383Z,99.90
2018-04-14T00:26:18.810Z,99.90
2018-04-14T00:28:45.225Z,99.90
2018-04-14T00:31:11.618Z,99.90
2018-04-14T00:33:38.086Z,99.90
2018-04-14T00:36:04.493Z,99.90
2018-04-14T00:38:30.892Z,99.90
2018-04-14T00:40:57.337Z,99.90
2018-04-14T00:43:23.752Z,99.90
2018-04-14T00:45:50.166Z,99.90
2018-04-14T00:48:16.597Z,99.90
2018-04-14T00:50:43.730Z,99.90
2018-04-14T00:53:22.597Z,99.90
2018-04-14T00:55:49.027Z,99.90
2018-04-14T00:58:15.441Z,99.90
2018-04-14T01:00:41.869Z,99.90
2018-04-14T01:03:08.328Z,99.90
2018-04-14T01:05:34.713Z,99.90
2018-04-14T01:08:01.918Z,99.90
2018-04-14T01:10:28.329Z,99.90
2018-04-14T01:12:54.757Z,99.90
2018-04-14T01:15:21.182Z,99.90
2018-04-14T01:17:47.565Z,99.90
2018-04-14T01:20:14.705Z,99.90
2018-04-14T01:22:41.155Z,99.90
2018-04-14T01:25:08.330Z,99.90
2018-04-14T01:27:35.444Z,99.90
2018-04-14T01:30:01.865Z,99.90
2018-04-14T01:32:28.330Z,99.90
2018-04-14T01:34:56.618Z,99.90
2018-04-14T01:37:23.781Z,99.90
2018-04-14T01:39:50.152Z,99.90
2018-04-14T01:42:16.588Z,99.90
2018-04-14T01:44:43.070Z,99.90
2018-04-14T01:47:10.225Z,99.90
2018-04-14T01:49:37.386Z,99.90
2018-04-14T01:52:03.931Z,99.90
2018-04-14T01:54:30.320Z,99.90
2018-04-14T01:56:56.715Z,99.90
2018-04-14T01:59:23.119Z,99.90
2018-04-14T02:01:50.261Z,99.90
2018-04-14T02:04:16.656Z,99.90
2018-04-14T02:06:43.072Z,99.90
2018-04-14T02:09:09.461Z,99.90
2018-04-14T02:11:36.599Z,99.90
2018-04-14T02:14:03.782Z,99.90
2018-04-14T02:16:30.197Z,99.90
2018-04-14T02:18:56.593Z,99.90
2018-04-14T02:21:30.166Z,99.90
2018-04-14T02:24:04.233Z,99.90
2018-04-14T02:26:31.416Z,99.90
2018-04-14T02:29:04.798Z,99.90
2018-04-14T02:31:31.934Z,99.90
2018-04-14T02:33:58.328Z,99.90
2018-04-14T02:36:24.750Z,99.90
2018-04-14T02:38:51.193Z,99.90
2018-04-14T02:41:17.582Z,99.90
2018-04-14T02:43:43.969Z,99.90
2018-04-14T02:46:10.386Z,99.90
2018-04-14T02:48:37.544Z,99.90
2018-04-14T02:51:03.940Z,99.90
2018-04-14T02:53:30.372Z,99.90
2018-04-14T02:55:56.848Z,99.90
2018-04-14T02:58:23.230Z,99.90
2018-04-14T03:00:49.662Z,99.90
2018-04-14T03:03:16.045Z,99.90
2018-04-14T03:05:42.425Z,99.90
2018-04-14T03:08:08.872Z,99.90
2018-04-14T03:10:35.253Z,99.90
2018-04-14T03:13:02.403Z,99.90
2018-04-14T03:15:29.023Z,99.90
2018-04-14T03:17:55.419Z,99.90
2018-04-14T03:20:21.854Z,99.90
2018-04-14T03:22:48.282Z,99.90
2018-04-14T03:25:14.734Z,99.90
2018-04-14T03:27:41.144Z,99.90
2018-04-14T03:30:07.564Z,99.90
2018-04-14T03:32:33.969Z,99.90
2018-04-14T03:35:00.353Z,99.90
2018-04-14T03:37:26.793Z,99.90
2018-04-14T03:39:53.173Z,99.90
2018-04-14T03:42:20.319Z,99.90
2018-04-14T03:44:47.552Z,99.90
2018-04-14T03:47:13.976Z,99.90
2018-04-14T03:49:40.408Z,99.90
2018-04-14T03:52:06.867Z,99.90
2018-04-14T03:54:34.011Z,99.90
2018-04-14T03:57:01.160Z,99.90
2018-04-14T03:59:27.569Z,99.90
2018-04-14T04:01:53.972Z,99.90
2018-04-14T04:04:20.369Z,99.90
2018-04-14T04:06:47.541Z,99.90
2018-04-14T04:09:13.931Z,99.90
2018-04-14T04:11:41.804Z,99.90
2018-04-14T04:14:08.202Z,99.90
2018-04-14T04:16:34.640Z,99.90
2018-04-14T04:19:13.323Z,99.90
2018-04-14T04:21:52.020Z,99.90
2018-04-14T04:24:30.893Z,99.90
2018-04-14T04:26:58.079Z,99.90
2018-04-14T04:29:24.469Z,99.90
2018-04-14T04:31:50.915Z,99.90
2018-04-14T04:34:17.325Z,99.90
2018-04-14T04:36:43.717Z,99.90
2018-04-14T04:39:10.127Z,99.90
2018-04-14T04:41:36.578Z,99.90
2018-04-14T04:44:02.981Z,99.90
2018-04-14T04:46:29.412Z,99.90
2018-04-14T04:48:55.820Z,99.90
2018-04-14T04:51:22.223Z,99.90
2018-04-14T04:53:49.378Z,99.90
2018-04-14T04:56:15.796Z,99.90
2018-04-14T04:58:42.949Z,99.90
2018-04-14T05:01:10.109Z,99.90
2018-04-14T05:03:36.497Z,99.90
2018-04-14T05:06:02.874Z,99.90
2018-04-14T05:08:29.316Z,99.90
2018-04-14T05:10:55.695Z,99.90
2018-04-14T05:13:22.133Z,99.90
2018-04-14T05:15:48.509Z,99.90
2018-04-14T05:18:15.644Z,99.90
2018-04-14T05:20:42.018Z,99.90
2018-04-14T05:23:08.552Z,99.90
2018-04-14T05:25:34.938Z,99.90
2018-04-14T05:28:02.166Z,99.90
2018-04-14T05:30:28.813Z,99.90
2018-04-14T05:32:55.233Z,99.90
2018-04-14T05:35:21.629Z,99.90
2018-04-14T05:37:48.123Z,99.90
2018-04-14T05:40:14.655Z,99.90
2018-04-14T05:42:42.568Z,99.90
2018-04-14T05:45:08.981Z,99.90
2018-04-14T05:47:36.130Z,99.90
2018-04-14T05:50:03.252Z,99.90
2018-04-14T05:52:29.682Z,99.90
2018-04-14T05:54:57.564Z,99.90
2018-04-14T05:57:24.102Z,99.90
2018-04-14T05:59:50.561Z,99.90
2018-04-14T06:02:16.969Z,99.90
2018-04-14T06:04:44.088Z,99.90
2018-04-14T06:07:11.597Z,99.90
2018-04-14T06:09:38.743Z,99.90
2018-04-14T06:12:05.145Z,99.90
2018-04-14T06:14:32.392Z,99.90
2018-04-14T06:16:58.804Z,99.90
2018-04-14T06:19:25.262Z,99.90
2018-04-14T06:21:51.658Z,99.90
2018-04-14T06:24:18.230Z,99.90
2018-04-14T06:26:44.624Z,99.90
2018-04-14T06:29:11.072Z,99.90
2018-04-14T06:31:37.488Z,99.90
2018-04-14T06:34:03.873Z,99.90
2018-04-14T06:36:30.297Z,99.90
2018-04-14T06:38:56.680Z,99.90
2018-04-14T06:41:23.123Z,99.90
2018-04-14T06:43:49.592Z,99.90
2018-04-14T06:46:16.022Z,99.90
2018-04-14T06:48:42.426Z,99.90
2018-04-14T06:51:08.892Z,99.90
2018-04-14T06:53:35.313Z,99.90
2018-04-14T06:56:01.720Z,99.90
2018-04-14T06:58:28.164Z,99.90
2018-04-14T07:00:54.577Z,99.90
2018-04-14T07:03:20.943Z,99.90
2018-04-14T07:05:47.377Z,99.90
2018-04-14T07:08:13.806Z,99.90
2018-04-14T07:10:40.216Z,99.90
2018-04-14T07:13:06.687Z,99.90
2018-04-14T07:15:33.070Z,99.90
2018-04-14T07:17:59.470Z,99.90
2018-04-14T07:20:26.808Z,99.90
2018-04-14T07:22:53.267Z,99.90
2018-04-14T07:25:20.410Z,99.90
2018-04-14T07:27:47.619Z,99.90
2018-04-14T07:30:14.013Z,99.90
2018-04-14T07:32:40.455Z,99.90
2018-04-14T07:35:06.901Z,99.90
2018-04-14T07:37:33.352Z,99.90
2018-04-14T07:39:59.762Z,99.90
2018-04-14T07:42:26.261Z,99.90
2018-04-14T07:44:52.744Z,99.90
2018-04-14T07:47:19.186Z,99.90
2018-04-14T07:49:45.629Z,99.90
2018-04-14T07:52:12.087Z,99.90
2018-04-14T07:54:38.517Z,99.90
2018-04-14T07:57:05.691Z,99.90
2018-04-14T07:59:32.121Z,99.90
2018-04-14T08:01:58.517Z,99.90
2018-04-14T08:04:24.960Z,99.90
2018-04-14T08:06:51.391Z,99.90
2018-04-14T08:09:17.798Z,99.90
2018-04-14T08:11:44.218Z,99.90
2018-04-14T08:14:10.644Z,99.90
2018-04-14T08:16:37.068Z,99.90
2018-04-14T08:19:03.516Z,99.00
2018-04-14T08:21:29.892Z,99.90
2018-04-14T08:23:56.337Z,96.90
2018-04-14T08:26:23.561Z,87.90
2018-04-14T08:28:49.949Z,88.60
2018-04-14T08:31:16.421Z,73.10
2018-04-14T08:33:42.873Z,66.10
2018-04-14T08:36:09.263Z,59.30
2018-04-14T08:38:35.669Z,55.50
2018-04-14T08:41:02.097Z,48.00
2018-04-14T08:43:28.551Z,48.90
2018-04-14T08:45:54.975Z,47.50
2018-04-14T08:48:21.470Z,48.10
2018-04-14T08:50:47.894Z,48.40
2018-04-14T08:53:14.326Z,48.70
2018-04-14T08:55:40.762Z,49.40
2018-04-14T08:58:07.162Z,49.30
2018-04-14T09:00:33.570Z,58.30
2018-04-14T09:03:00.082Z,65.80
2018-04-14T09:05:26.638Z,80.30
2018-04-14T09:07:53.116Z,91.20
2018-04-14T09:10:19.812Z,96.00
2018-04-14T09:12:46.237Z,94.60
2018-04-14T09:15:13.616Z,99.90
2018-04-14T09:17:40.070Z,99.90
2018-04-14T09:20:06.495Z,95.10
2018-04-14T09:22:33.170Z,99.90
2018-04-14T09:24:59.590Z,99.90
2018-04-14T09:27:26.003Z,99.90
2018-04-14T09:29:52.405Z,99.90
2018-04-14T09:32:18.856Z,99.90
2018-04-14T09:34:45.257Z,99.90
2018-04-14T09:37:12.418Z,99.90
2018-04-14T09:39:38.921Z,99.90
2018-04-14T09:42:06.128Z,99.90
2018-04-14T09:44:32.589Z,99.90
2018-04-14T09:46:59.815Z,99.90
2018-04-14T09:49:26.422Z,99.90
2018-04-14T09:51:53.002Z,99.90
2018-04-14T09:54:19.491Z,99.90
2018-04-14T09:56:45.946Z,99.90
2018-04-14T09:59:12.389Z,99.90
2018-04-14T10:01:38.853Z,99.90
2018-04-14T10:04:06.037Z,99.90
2018-04-14T10:06:33.178Z,99.90
2018-04-14T10:09:00.372Z,99.90
2018-04-14T10:11:26.744Z,99.90
2018-04-14T10:13:53.221Z,99.90
2018-04-14T10:16:19.687Z,99.90
2018-04-14T10:18:46.108Z,99.90
2018-04-14T10:21:12.565Z,99.90
2018-04-14T10:23:39.057Z,99.90
2018-04-14T10:26:06.370Z,99.90
2018-04-14T10:28:33.584Z,99.90
2018-04-14T10:31:00.095Z,99.90
2018-04-14T10:33:26.506Z,99.90
2018-04-14T10:35:52.912Z,99.90
2018-04-14T10:38:19.373Z,99.90
2018-04-14T10:40:46.676Z,99.90
2018-04-14T10:43:13.104Z,99.90
2018-04-14T10:45:39.675Z,99.90
2018-04-14T10:48:06.314Z,99.90
2018-04-14T10:50:33.583Z,99.90
2018-04-14T10:53:00.779Z,99.90
2018-04-14T10:55:27.202Z,99.90
2018-04-14T10:57:54.386Z,99.90
2018-04-14T11:00:20.834Z,99.90
2018-04-14T11:02:47.242Z,99.90
2018-04-14T11:05:13.726Z,99.90
2018-04-14T11:07:40.242Z,99.90
2018-04-14T11:10:06.773Z,99.90
2018-04-14T11:12:34.641Z,99.90
2018-04-14T11:15:01.071Z,99.90
2018-04-14T11:17:27.481Z,99.90
2018-04-14T11:19:53.962Z,99.90
2018-04-14T11:22:21.140Z,99.90
2018-04-14T11:24:47.536Z,99.90
2018-04-14T11:27:14.686Z,99.90
2018-04-14T11:29:42.594Z,99.90
2018-04-14T11:32:08.996Z,99.90
2018-04-14T11:34:35.388Z,99.90
2018-04-14T11:37:01.832Z,99.90
2018-04-14T11:39:28.227Z,99.90
2018-04-14T11:41:54.633Z,94.60
2018-04-14T11:44:21.817Z,94.80
2018-04-14T11:46:48.257Z,94.80
2018-04-14T11:49:14.653Z,99.90
2018-04-14T11:51:41.092Z,99.90
2018-04-14T11:54:07.487Z,99.90
2018-04-14T11:56:33.896Z,99.90
2018-04-14T11:59:00.337Z,98.70
2018-04-14T12:01:26.756Z,93.30
2018-04-14T12:03:53.190Z,94.70
2018-04-14T12:06:19.653Z,96.10
2018-04-14T12:08:46.101Z,98.50
2018-04-14T12:11:12.510Z,91.40
2018-04-14T12:13:40.437Z,90.10
2018-04-14T12:16:06.881Z,90.10
2018-04-14T12:18:33.291Z,90.10
2018-04-14T12:21:00.555Z,81.10
2018-04-14T12:23:27.032Z,80.80
2018-04-14T12:25:53.474Z,97.20
2018-04-14T12:28:19.968Z,90.90
2018-04-14T12:30:46.365Z,92.10
2018-04-14T12:33:13.279Z,88.70
2018-04-14T12:35:39.714Z,90.30
2018-04-14T12:38:06.110Z,86.50
2018-04-14T12:40:32.525Z,73.20
2018-04-14T12:42:58.956Z,73.00
2018-04-14T12:45:25.352Z,80.80
2018-04-14T12:47:51.794Z,80.60
2018-04-14T12:50:18.964Z,74.40
2018-04-14T12:52:46.179Z,73.70
2018-04-14T12:55:12.626Z,73.90
2018-04-14T12:57:39.808Z,59.60
2018-04-14T13:00:06.225Z,59.60
2018-04-14T13:02:32.685Z,58.70
2018-04-14T13:04:59.173Z,63.60
2018-04-14T13:07:26.326Z,64.30
2018-04-14T13:09:53.476Z,59.30
2018-04-14T13:12:20.669Z,59.90
2018-04-14T13:14:47.097Z,59.90
2018-04-14T13:17:13.539Z,65.70
2018-04-14T13:19:39.977Z,66.50
2018-04-14T13:22:06.449Z,62.80
2018-04-14T13:24:32.914Z,67.70
2018-04-14T13:26:59.392Z,65.30
2018-04-14T13:29:25.974Z,58.00
2018-04-14T13:31:52.446Z,58.30
2018-04-14T13:34:18.903Z,61.00
2018-04-14T13:36:45.353Z,57.30
2018-04-14T13:39:11.767Z,63.70
2018-04-14T13:41:38.217Z,61.10
2018-04-14T13:44:04.624Z,63.40
2018-04-14T13:46:31.148Z,68.10
2018-04-14T13:48:57.620Z,63.10
2018-04-14T13:51:24.079Z,55.10
2018-04-14T13:53:51.263Z,54.10
2018-04-14T13:56:17.960Z,54.10
2018-04-14T13:58:45.116Z,62.00
2018-04-14T14:01:11.550Z,62.20
2018-04-14T14:03:38.801Z,56.00
2018-04-14T14:06:05.326Z,56.10
2018-04-14T14:08:32.489Z,55.50
2018-04-14T14:10:58.893Z,55.40
2018-04-14T14:13:25.370Z,56.00
2018-04-14T14:15:52.037Z,55.10
2018-04-14T14:18:18.499Z,59.80
2018-04-14T14:20:44.905Z,57.60
2018-04-14T14:23:11.321Z,60.70
2018-04-14T14:25:37.760Z,57.10
2018-04-14T14:28:04.230Z,59.10
2018-04-14T14:30:31.390Z,58.30
2018-04-14T14:32:57.826Z,58.30
2018-04-14T14:35:25.014Z,54.70
2018-04-14T14:37:51.429Z,54.60
2018-04-14T14:40:17.897Z,57.70
2018-04-14T14:42:44.331Z,58.70
2018-04-14T14:45:10.729Z,55.90
2018-04-14T14:47:37.950Z,57.50
2018-04-14T14:50:10.546Z,57.50
2018-04-14T14:52:36.966Z,57.60
2018-04-14T14:55:04.226Z,54.00
2018-04-14T14:57:30.679Z,53.90
2018-04-14T14:59:57.844Z,55.00
2018-04-14T15:02:24.250Z,55.00
2018-04-14T15:04:50.671Z,53.60
2018-04-14T15:07:18.004Z,62.30
2018-04-14T15:09:44.503Z,62.20
2018-04-14T15:12:10.940Z,58.40
2018-04-14T15:14:37.396Z,59.40
2018-04-14T15:17:03.860Z,62.80
2018-04-14T15:19:30.398Z,60.90
2018-04-14T15:21:56.831Z,58.90
2018-04-14T15:24:23.361Z,59.10
2018-04-14T15:26:49.812Z,58.40
2018-04-14T15:29:16.326Z,57.40
2018-04-14T15:31:42.740Z,58.10
2018-04-14T15:34:09.173Z,58.30
2018-04-14T15:36:35.617Z,60.00
2018-04-14T15:39:02.256Z,60.60
2018-04-14T15:41:28.673Z,59.80
2018-04-14T15:43:55.139Z,59.60
2018-04-14T15:46:21.664Z,57.80
2018-04-14T15:48:48.161Z,57.10
2018-04-14T15:51:14.655Z,58.60
2018-04-14T15:53:41.073Z,59.00
2018-04-14T15:56:07.498Z,62.50
2018-04-14T15:58:34.681Z,61.60
2018-04-14T16:01:01.917Z,58.90
2018-04-14T16:03:28.436Z,58.80
2018-04-14T16:05:54.865Z,56.10
2018-04-14T16:08:22.031Z,58.40
2018-04-14T16:10:48.446Z,58.30
2018-04-14T16:13:14.965Z,62.20
2018-04-14T16:15:41.378Z,61.30
2018-04-14T16:18:07.958Z,62.00
2018-04-14T16:20:34.363Z,64.00
2018-04-14T16:23:00.980Z,65.30
2018-04-14T16:25:27.733Z,66.70
2018-04-14T16:27:54.259Z,71.60
2018-04-14T16:30:20.726Z,67.70
2018-04-14T16:32:47.185Z,68.00
2018-04-14T16:35:14.344Z,67.00
2018-04-14T16:37:41.484Z,69.30
2018-04-14T16:40:07.900Z,69.20
2018-04-14T16:42:34.319Z,71.00
2018-04-14T16:45:00.730Z,70.20
2018-04-14T16:47:27.181Z,70.30
2018-04-14T16:49:53.634Z,69.40
2018-04-14T16:52:20.169Z,70.60
2018-04-14T16:54:46.609Z,71.70
2018-04-14T16:57:13.028Z,73.90
2018-04-14T16:59:39.456Z,71.10
2018-04-14T17:02:05.921Z,71.50
2018-04-14T17:04:33.092Z,70.60
2018-04-14T17:06:59.530Z,70.50
2018-04-14T17:09:25.966Z,67.20
2018-04-14T17:14:25.495Z,68.90
2018-04-14T17:16:51.929Z,71.00
2018-04-14T17:19:18.345Z,71.30
2018-04-14T17:21:44.768Z,67.30
2018-04-14T17:24:11.283Z,67.90
2018-04-14T17:26:37.718Z,68.80
2018-04-14T17:29:04.871Z,71.20
2018-04-14T17:31:32.138Z,71.70
2018-04-14T17:33:59.322Z,73.80
2018-04-14T17:36:25.730Z,73.80
2018-04-14T17:38:52.165Z,74.90
2018-04-14T17:41:18.655Z,76.30
2018-04-14T17:43:45.113Z,79.10
2018-04-14T17:46:12.289Z,81.90
2018-04-14T17:48:38.713Z,81.80
2018-04-14T17:51:05.123Z,83.80
2018-04-14T17:53:32.349Z,86.60
2018-04-14T17:55:58.810Z,86.50
2018-04-14T17:58:25.240Z,87.00
2018-04-14T18:00:52.563Z,89.80
2018-04-14T18:03:19.768Z,90.60
2018-04-14T18:05:46.186Z,90.60
2018-04-14T18:08:13.530Z,91.60
2018-04-14T18:10:39.960Z,91.60
2018-04-14T18:13:06.375Z,92.20
2018-04-14T18:15:32.820Z,92.60
2018-04-14T18:17:59.991Z,92.40
2018-04-14T18:20:27.141Z,91.60
2018-04-14T18:22:53.659Z,91.60
2018-04-14T18:25:20.097Z,90.00
2018-04-14T18:27:47.272Z,93.10
2018-04-14T18:30:13.780Z,93.00
2018-04-14T18:32:40.283Z,94.00
2018-04-14T18:35:06.682Z,94.10
2018-04-14T18:37:33.862Z,93.10
2018-04-14T18:40:00.285Z,93.00
2018-04-14T18:42:26.696Z,92.60
2018-04-14T18:44:53.349Z,93.70
2018-04-14T18:47:19.866Z,94.50
2018-04-14T18:49:46.285Z,94.40
2018-04-14T18:52:13.578Z,96.00
2018-04-14T18:54:40.137Z,96.00
2018-04-14T18:57:07.527Z,98.00
2018-04-14T18:59:35.069Z,99.20
2018-04-14T19:02:01.502Z,99.20
2018-04-14T19:04:27.969Z,99.90
2018-04-14T19:06:54.487Z,99.90
2018-04-14T19:09:20.916Z,99.90
2018-04-14T19:11:47.313Z,99.90
2018-04-14T19:14:13.885Z,99.90
2018-04-14T19:16:41.090Z,99.90
2018-04-14T19:19:07.503Z,99.90
2018-04-14T19:21:33.971Z,99.90
2018-04-14T19:24:00.402Z,99.90
2018-04-14T19:26:26.803Z,99.90
2018-04-14T19:28:53.270Z,99.90
2018-04-14T19:31:19.747Z,99.90
2018-04-14T19:33:46.212Z,99.90
2018-04-14T19:36:12.686Z,99.90
2018-04-14T19:38:39.142Z,99.90
2018-04-14T19:41:06.364Z,99.90
2018-04-14T19:43:34.822Z,99.90
2018-04-14T19:46:01.556Z,99.90
2018-04-14T19:48:28.924Z,99.90
2018-04-14T19:50:55.388Z,99.90
2018-04-14T19:53:22.554Z,99.90
2018-04-14T19:55:49.014Z,99.90
2018-04-14T19:58:15.461Z,99.90
2018-04-14T20:00:41.942Z,99.90
2018-04-14T20:03:08.386Z,99.90
2018-04-14T20:05:34.841Z,99.90
2018-04-14T20:08:01.257Z,99.90
2018-04-14T20:10:28.419Z,99.90
2018-04-14T20:12:54.895Z,99.90
2018-04-14T20:15:21.334Z,99.90
2018-04-14T20:17:47.906Z,99.90
2018-04-14T20:20:15.771Z,99.90
2018-04-14T20:22:43.705Z,99.90
2018-04-14T20:25:10.220Z,99.90
2018-04-14T20:27:36.683Z,99.90
2018-04-14T20:30:04.047Z,99.90
2018-04-14T20:32:31.309Z,99.90
2018-04-14T20:34:57.857Z,99.90
2018-04-14T20:37:24.261Z,99.90
2018-04-14T20:39:50.697Z,99.90
2018-04-14T20:42:17.183Z,99.90
2018-04-14T20:44:43.852Z,99.90
2018-04-14T20:47:10.271Z,99.90
2018-04-14T20:49:36.704Z,99.90
2018-04-14T20:52:03.195Z,99.90
2018-04-14T20:54:30.534Z,99.90
2018-04-14T20:56:56.982Z,99.90
2018-04-14T20:59:24.171Z,99.90
2018-04-14T21:01:50.617Z,99.90
2018-04-14T21:04:17.068Z,99.90
2018-04-14T21:06:43.504Z,99.90
2018-04-14T21:09:09.881Z,99.90
2018-04-14T21:11:37.066Z,99.90
2018-04-14T21:14:03.488Z,99.90
2018-04-14T21:16:29.890Z,99.90
2018-04-14T21:18:56.350Z,99.90
2018-04-14T21:21:22.876Z,99.90
2018-04-14T21:23:49.285Z,99.90
2018-04-14T21:26:16.475Z,99.90
2018-04-14T21:28:42.901Z,99.90
2018-04-14T21:31:09.320Z,99.90
2018-04-14T21:33:35.782Z,99.90
2018-04-14T21:36:02.257Z,99.90
2018-04-14T21:38:29.405Z,99.90
2018-04-14T21:40:56.619Z,99.90
2018-04-14T21:43:23.024Z,99.90
2018-04-14T21:45:49.498Z,99.90
2018-04-14T21:48:17.442Z,99.90
2018-04-14T21:50:43.924Z,99.90
2018-04-14T21:53:10.464Z,99.90
2018-04-14T21:55:36.886Z,99.90
2018-04-14T21:58:04.834Z,99.90
2018-04-14T22:00:31.291Z,99.90
2018-04-14T22:02:57.776Z,99.90
2018-04-14T22:05:24.189Z,99.90
2018-04-14T22:07:51.320Z,99.90
2018-04-14T22:10:17.755Z,99.90
2018-04-14T22:12:44.944Z,99.90
2018-04-14T22:15:11.367Z,99.90
2018-04-14T22:17:37.800Z,99.90
2018-04-14T22:20:04.250Z,99.90
2018-04-14T22:22:30.649Z,99.90
2018-04-14T22:24:57.849Z,99.90
2018-04-14T22:27:24.365Z,99.90
2018-04-14T22:29:50.766Z,99.90
2018-04-14T22:32:17.193Z,99.90
2018-04-14T22:34:43.720Z,99.90
2018-04-14T22:37:10.866Z,99.90
2018-04-14T22:39:37.404Z,99.90
2018-04-14T22:42:03.829Z,99.90
2018-04-14T22:44:30.221Z,99.90
2018-04-14T22:46:56.651Z,99.90
2018-04-14T22:49:23.044Z,99.90
2018-04-14T22:51:50.258Z,99.90
2018-04-14T22:54:16.778Z,99.90
2018-04-14T22:56:43.288Z,99.90
2018-04-14T22:59:09.751Z,99.90
2018-04-14T23:01:36.318Z,99.90
2018-04-14T23:04:02.730Z,99.90
2018-04-14T23:06:29.154Z,99.90
2018-04-14T23:08:55.678Z,99.90
2018-04-14T23:11:22.126Z,99.90
2018-04-14T23:13:48.576Z,99.90
2018-04-14T23:16:15.095Z,99.90
2018-04-14T23:18:42.984Z,99.90
2018-04-14T23:21:09.440Z,99.90
2018-04-14T23:23:36.636Z,99.90
2018-04-14T23:26:03.081Z,99.90
2018-04-14T23:28:29.670Z,99.90
2018-04-14T23:30:56.832Z,99.90
2018-04-14T23:33:23.258Z,99.90
2018-04-14T23:35:50.384Z,99.90
2018-04-14T23:38:17.576Z,99.90
2018-04-14T23:40:44.121Z,99.90
2018-04-14T23:43:11.335Z,99.90
2018-04-14T23:45:38.560Z,99.90
2018-04-14T23:48:04.950Z,99.90
2018-04-14T23:50:32.144Z,99.90
2018-04-14T23:52:58.558Z,99.90
2018-04-14T23:55:24.958Z,99.90
2018-04-14T23:57:51.372Z,99.90
